sensor_id;sensor_type;location;lat;lon;timestamp;P1;durP1;ratioP1;P2;durP2;ratioP2
15982;SDS011;14442;50.196;8.096;2023-02-28T00:02:19;1.50;;;1.03;;
15982;SDS011;14442;50.196;8.096;2023-02-28T00:04:46;1.60;;;0.90;;
15982;SDS011;14442;50.196;8.096;2023-02-28T00:07:29;1.03;;;0.90;;
15982;SDS011;14442;50.196;8.096;2023-02-28T00:09:56;1.17;;;1.00;;
15982;SDS011;14442;50.196;8.096;2023-02-28T00:12:23;1.35;;;1.10;;
15982;SDS011;14442;50.196;8.096;2023-02-28T00:14:50;1.90;;;0.90;;
15982;SDS011;14442;50.196;8.096;2023-02-28T00:17:17;2.33;;;1.20;;
15982;SDS011;14442;50.196;8.096;2023-02-28T00:19:46;2.13;;;1.20;;
15982;SDS011;14442;50.196;8.096;2023-02-28T00:22:12;2.30;;;1.10;;
15982;SDS011;14442;50.196;8.096;2023-02-28T00:24:41;1.63;;;0.90;;
15982;SDS011;14442;50.196;8.096;2023-02-28T00:27:07;2.33;;;0.90;;
15982;SDS011;14442;50.196;8.096;2023-02-28T00:29:34;1.43;;;1.00;;
15982;SDS011;14442;50.196;8.096;2023-02-28T00:32:01;1.70;;;0.80;;
15982;SDS011;14442;50.196;8.096;2023-02-28T00:34:28;1.53;;;0.63;;
15982;SDS011;14442;50.196;8.096;2023-02-28T00:36:55;1.60;;;0.70;;
15982;SDS011;14442;50.196;8.096;2023-02-28T00:39:22;1.33;;;1.10;;
15982;SDS011;14442;50.196;8.096;2023-02-28T00:41:50;1.03;;;0.90;;
15982;SDS011;14442;50.196;8.096;2023-02-28T00:44:17;1.20;;;0.87;;
15982;SDS011;14442;50.196;8.096;2023-02-28T00:46:46;1.03;;;0.73;;
15982;SDS011;14442;50.196;8.096;2023-02-28T00:49:13;1.70;;;1.10;;
15982;SDS011;14442;50.196;8.096;2023-02-28T00:51:39;1.97;;;0.83;;
15982;SDS011;14442;50.196;8.096;2023-02-28T00:54:06;0.70;;;0.70;;
15982;SDS011;14442;50.196;8.096;2023-02-28T00:56:33;0.93;;;0.80;;
15982;SDS011;14442;50.196;8.096;2023-02-28T00:59:01;2.20;;;1.30;;
15982;SDS011;14442;50.196;8.096;2023-02-28T01:01:27;1.20;;;1.10;;
15982;SDS011;14442;50.196;8.096;2023-02-28T01:03:54;0.90;;;0.90;;
15982;SDS011;14442;50.196;8.096;2023-02-28T01:06:21;1.57;;;1.30;;
15982;SDS011;14442;50.196;8.096;2023-02-28T01:08:48;2.00;;;1.53;;
15982;SDS011;14442;50.196;8.096;2023-02-28T01:11:16;1.50;;;1.17;;
15982;SDS011;14442;50.196;8.096;2023-02-28T01:13:44;1.20;;;1.10;;
15982;SDS011;14442;50.196;8.096;2023-02-28T01:16:13;1.60;;;1.50;;
15982;SDS011;14442;50.196;8.096;2023-02-28T01:18:40;1.70;;;1.60;;
15982;SDS011;14442;50.196;8.096;2023-02-28T01:21:07;1.00;;;1.00;;
15982;SDS011;14442;50.196;8.096;2023-02-28T01:23:35;1.10;;;1.10;;
15982;SDS011;14442;50.196;8.096;2023-02-28T01:26:05;1.23;;;1.03;;
15982;SDS011;14442;50.196;8.096;2023-02-28T01:28:32;1.03;;;0.93;;
15982;SDS011;14442;50.196;8.096;2023-02-28T01:30:59;1.57;;;1.10;;
15982;SDS011;14442;50.196;8.096;2023-02-28T01:33:27;1.60;;;1.37;;
15982;SDS011;14442;50.196;8.096;2023-02-28T01:35:57;1.27;;;1.17;;
15982;SDS011;14442;50.196;8.096;2023-02-28T01:38:24;0.80;;;0.80;;
15982;SDS011;14442;50.196;8.096;2023-02-28T01:40:51;1.47;;;0.80;;
15982;SDS011;14442;50.196;8.096;2023-02-28T01:43:20;0.60;;;0.60;;
15982;SDS011;14442;50.196;8.096;2023-02-28T01:45:48;1.03;;;1.03;;
15982;SDS011;14442;50.196;8.096;2023-02-28T01:48:15;1.23;;;0.60;;
15982;SDS011;14442;50.196;8.096;2023-02-28T01:50:43;0.80;;;0.80;;
15982;SDS011;14442;50.196;8.096;2023-02-28T01:53:14;0.83;;;0.80;;
15982;SDS011;14442;50.196;8.096;2023-02-28T01:55:45;0.60;;;0.60;;
15982;SDS011;14442;50.196;8.096;2023-02-28T01:58:14;0.77;;;0.63;;
15982;SDS011;14442;50.196;8.096;2023-02-28T02:00:41;0.50;;;0.50;;
15982;SDS011;14442;50.196;8.096;2023-02-28T02:03:09;0.70;;;0.70;;
15982;SDS011;14442;50.196;8.096;2023-02-28T02:05:38;0.70;;;0.70;;
15982;SDS011;14442;50.196;8.096;2023-02-28T02:08:08;0.97;;;0.70;;
15982;SDS011;14442;50.196;8.096;2023-02-28T02:10:39;1.00;;;0.60;;
15982;SDS011;14442;50.196;8.096;2023-02-28T02:13:11;0.50;;;0.40;;
15982;SDS011;14442;50.196;8.096;2023-02-28T02:16:01;0.50;;;0.50;;
15982;SDS011;14442;50.196;8.096;2023-02-28T02:18:36;0.57;;;0.40;;
15982;SDS011;14442;50.196;8.096;2023-02-28T02:21:31;0.40;;;0.40;;
15982;SDS011;14442;50.196;8.096;2023-02-28T02:24:35;0.40;;;0.40;;
15982;SDS011;14442;50.196;8.096;2023-02-28T02:27:34;0.80;;;0.50;;
15982;SDS011;14442;50.196;8.096;2023-02-28T02:33:27;0.30;;;0.30;;
15982;SDS011;14442;50.196;8.096;2023-02-28T02:36:12;1.03;;;0.50;;
15982;SDS011;14442;50.196;8.096;2023-02-28T02:38:46;0.33;;;0.33;;
15982;SDS011;14442;50.196;8.096;2023-02-28T02:41:18;0.70;;;0.50;;
15982;SDS011;14442;50.196;8.096;2023-02-28T02:43:50;0.30;;;0.30;;
15982;SDS011;14442;50.196;8.096;2023-02-28T02:46:19;0.20;;;0.20;;
15982;SDS011;14442;50.196;8.096;2023-02-28T02:48:49;0.40;;;0.40;;
15982;SDS011;14442;50.196;8.096;2023-02-28T02:51:20;0.20;;;0.20;;
15982;SDS011;14442;50.196;8.096;2023-02-28T02:53:50;0.47;;;0.47;;
15982;SDS011;14442;50.196;8.096;2023-02-28T02:56:21;0.30;;;0.30;;
15982;SDS011;14442;50.196;8.096;2023-02-28T02:58:50;0.53;;;0.30;;
15982;SDS011;14442;50.196;8.096;2023-02-28T03:01:22;0.30;;;0.30;;
15982;SDS011;14442;50.196;8.096;2023-02-28T03:03:54;0.20;;;0.20;;
15982;SDS011;14442;50.196;8.096;2023-02-28T03:06:24;0.30;;;0.30;;
15982;SDS011;14442;50.196;8.096;2023-02-28T03:08:51;0.30;;;0.30;;
15982;SDS011;14442;50.196;8.096;2023-02-28T03:11:18;0.20;;;0.20;;
15982;SDS011;14442;50.196;8.096;2023-02-28T03:13:49;0.20;;;0.20;;
15982;SDS011;14442;50.196;8.096;2023-02-28T03:16:29;0.93;;;0.20;;
15982;SDS011;14442;50.196;8.096;2023-02-28T03:19:03;0.40;;;0.40;;
15982;SDS011;14442;50.196;8.096;2023-02-28T03:21:46;0.50;;;0.30;;
15982;SDS011;14442;50.196;8.096;2023-02-28T03:24:21;0.20;;;0.20;;
15982;SDS011;14442;50.196;8.096;2023-02-28T03:26:58;0.33;;;0.30;;
15982;SDS011;14442;50.196;8.096;2023-02-28T03:29:32;0.23;;;0.20;;
15982;SDS011;14442;50.196;8.096;2023-02-28T03:32:03;0.10;;;0.10;;
15982;SDS011;14442;50.196;8.096;2023-02-28T03:34:39;0.50;;;0.30;;
15982;SDS011;14442;50.196;8.096;2023-02-28T03:37:13;0.20;;;0.20;;
15982;SDS011;14442;50.196;8.096;2023-02-28T03:39:44;0.20;;;0.20;;
15982;SDS011;14442;50.196;8.096;2023-02-28T03:42:15;0.40;;;0.40;;
15982;SDS011;14442;50.196;8.096;2023-02-28T03:44:45;0.30;;;0.20;;
15982;SDS011;14442;50.196;8.096;2023-02-28T03:47:16;0.20;;;0.20;;
15982;SDS011;14442;50.196;8.096;2023-02-28T03:49:49;0.73;;;0.20;;
15982;SDS011;14442;50.196;8.096;2023-02-28T03:52:21;0.20;;;0.20;;
15982;SDS011;14442;50.196;8.096;2023-02-28T03:54:52;0.70;;;0.30;;
15982;SDS011;14442;50.196;8.096;2023-02-28T03:57:23;0.20;;;0.20;;
15982;SDS011;14442;50.196;8.096;2023-02-28T03:59:57;0.30;;;0.30;;
15982;SDS011;14442;50.196;8.096;2023-02-28T04:02:29;0.23;;;0.20;;
15982;SDS011;14442;50.196;8.096;2023-02-28T04:04:56;0.10;;;0.10;;
15982;SDS011;14442;50.196;8.096;2023-02-28T04:07:24;0.20;;;0.20;;
15982;SDS011;14442;50.196;8.096;2023-02-28T04:09:51;0.40;;;0.20;;
15982;SDS011;14442;50.196;8.096;2023-02-28T04:12:18;0.43;;;0.20;;
15982;SDS011;14442;50.196;8.096;2023-02-28T04:14:46;0.20;;;0.20;;
15982;SDS011;14442;50.196;8.096;2023-02-28T04:17:12;0.30;;;0.30;;
15982;SDS011;14442;50.196;8.096;2023-02-28T04:19:39;0.20;;;0.20;;
15982;SDS011;14442;50.196;8.096;2023-02-28T04:22:06;0.20;;;0.20;;
15982;SDS011;14442;50.196;8.096;2023-02-28T04:24:35;0.27;;;0.20;;
15982;SDS011;14442;50.196;8.096;2023-02-28T04:27:02;0.20;;;0.20;;
15982;SDS011;14442;50.196;8.096;2023-02-28T04:29:29;0.43;;;0.20;;
15982;SDS011;14442;50.196;8.096;2023-02-28T04:31:58;0.20;;;0.20;;
15982;SDS011;14442;50.196;8.096;2023-02-28T04:34:26;0.20;;;0.20;;
15982;SDS011;14442;50.196;8.096;2023-02-28T04:36:53;0.10;;;0.10;;
15982;SDS011;14442;50.196;8.096;2023-02-28T04:39:20;0.10;;;0.10;;
15982;SDS011;14442;50.196;8.096;2023-02-28T04:41:48;0.30;;;0.20;;
15982;SDS011;14442;50.196;8.096;2023-02-28T04:44:16;0.20;;;0.20;;
15982;SDS011;14442;50.196;8.096;2023-02-28T04:46:43;0.10;;;0.10;;
15982;SDS011;14442;50.196;8.096;2023-02-28T04:49:10;0.27;;;0.27;;
15982;SDS011;14442;50.196;8.096;2023-02-28T04:51:38;0.40;;;0.20;;
15982;SDS011;14442;50.196;8.096;2023-02-28T04:54:05;0.77;;;0.20;;
15982;SDS011;14442;50.196;8.096;2023-02-28T04:56:32;0.40;;;0.30;;
15982;SDS011;14442;50.196;8.096;2023-02-28T04:59:00;0.50;;;0.30;;
15982;SDS011;14442;50.196;8.096;2023-02-28T05:01:28;0.30;;;0.20;;
15982;SDS011;14442;50.196;8.096;2023-02-28T05:03:56;0.93;;;0.30;;
15982;SDS011;14442;50.196;8.096;2023-02-28T05:06:25;0.30;;;0.30;;
15982;SDS011;14442;50.196;8.096;2023-02-28T05:08:53;0.50;;;0.30;;
15982;SDS011;14442;50.196;8.096;2023-02-28T05:11:20;0.30;;;0.30;;
15982;SDS011;14442;50.196;8.096;2023-02-28T05:13:48;1.17;;;0.20;;
15982;SDS011;14442;50.196;8.096;2023-02-28T05:16:17;1.00;;;0.30;;
15982;SDS011;14442;50.196;8.096;2023-02-28T05:18:44;0.40;;;0.30;;
15982;SDS011;14442;50.196;8.096;2023-02-28T05:21:22;0.20;;;0.20;;
15982;SDS011;14442;50.196;8.096;2023-02-28T05:23:51;1.20;;;0.37;;
15982;SDS011;14442;50.196;8.096;2023-02-28T05:26:18;0.40;;;0.20;;
15982;SDS011;14442;50.196;8.096;2023-02-28T05:28:45;0.27;;;0.27;;
15982;SDS011;14442;50.196;8.096;2023-02-28T05:31:11;0.63;;;0.30;;
15982;SDS011;14442;50.196;8.096;2023-02-28T05:33:40;1.27;;;0.40;;
15982;SDS011;14442;50.196;8.096;2023-02-28T05:36:07;0.30;;;0.30;;
15982;SDS011;14442;50.196;8.096;2023-02-28T05:38:34;0.30;;;0.30;;
15982;SDS011;14442;50.196;8.096;2023-02-28T05:41:04;0.30;;;0.30;;
15982;SDS011;14442;50.196;8.096;2023-02-28T05:43:31;0.50;;;0.30;;
15982;SDS011;14442;50.196;8.096;2023-02-28T05:45:58;0.20;;;0.20;;
15982;SDS011;14442;50.196;8.096;2023-02-28T05:48:25;0.40;;;0.40;;
15982;SDS011;14442;50.196;8.096;2023-02-28T05:50:53;0.63;;;0.30;;
15982;SDS011;14442;50.196;8.096;2023-02-28T05:53:20;0.40;;;0.30;;
15982;SDS011;14442;50.196;8.096;2023-02-28T05:55:47;0.63;;;0.30;;
15982;SDS011;14442;50.196;8.096;2023-02-28T05:58:20;0.50;;;0.30;;
15982;SDS011;14442;50.196;8.096;2023-02-28T06:00:46;0.40;;;0.30;;
15982;SDS011;14442;50.196;8.096;2023-02-28T06:03:13;0.43;;;0.30;;
15982;SDS011;14442;50.196;8.096;2023-02-28T06:05:40;0.80;;;0.40;;
15982;SDS011;14442;50.196;8.096;2023-02-28T06:08:08;0.20;;;0.20;;
15982;SDS011;14442;50.196;8.096;2023-02-28T06:10:34;0.40;;;0.23;;
15982;SDS011;14442;50.196;8.096;2023-02-28T06:13:02;2.10;;;1.17;;
15982;SDS011;14442;50.196;8.096;2023-02-28T06:15:29;0.60;;;0.60;;
15982;SDS011;14442;50.196;8.096;2023-02-28T06:17:56;0.70;;;0.70;;
15982;SDS011;14442;50.196;8.096;2023-02-28T06:20:24;1.17;;;0.63;;
15982;SDS011;14442;50.196;8.096;2023-02-28T06:22:54;1.10;;;0.70;;
15982;SDS011;14442;50.196;8.096;2023-02-28T06:25:22;2.10;;;0.70;;
15982;SDS011;14442;50.196;8.096;2023-02-28T06:27:49;1.70;;;0.73;;
15982;SDS011;14442;50.196;8.096;2023-02-28T06:30:16;0.70;;;0.70;;
15982;SDS011;14442;50.196;8.096;2023-02-28T06:32:43;0.70;;;0.70;;
15982;SDS011;14442;50.196;8.096;2023-02-28T06:35:09;2.10;;;0.60;;
15982;SDS011;14442;50.196;8.096;2023-02-28T06:37:36;0.90;;;0.90;;
15982;SDS011;14442;50.196;8.096;2023-02-28T06:40:03;2.57;;;1.00;;
15982;SDS011;14442;50.196;8.096;2023-02-28T06:42:34;1.63;;;0.90;;
15982;SDS011;14442;50.196;8.096;2023-02-28T06:45:01;1.60;;;0.90;;
15982;SDS011;14442;50.196;8.096;2023-02-28T06:47:33;1.10;;;1.00;;
15982;SDS011;14442;50.196;8.096;2023-02-28T06:50:00;0.97;;;0.87;;
15982;SDS011;14442;50.196;8.096;2023-02-28T06:52:27;1.10;;;1.10;;
15982;SDS011;14442;50.196;8.096;2023-02-28T06:54:54;0.83;;;0.80;;
15982;SDS011;14442;50.196;8.096;2023-02-28T06:57:24;1.37;;;1.03;;
15982;SDS011;14442;50.196;8.096;2023-02-28T06:59:52;1.43;;;1.30;;
15982;SDS011;14442;50.196;8.096;2023-02-28T07:02:19;2.03;;;1.10;;
15982;SDS011;14442;50.196;8.096;2023-02-28T07:04:46;0.80;;;0.70;;
15982;SDS011;14442;50.196;8.096;2023-02-28T07:07:12;0.97;;;0.90;;
15982;SDS011;14442;50.196;8.096;2023-02-28T07:09:39;1.10;;;0.70;;
15982;SDS011;14442;50.196;8.096;2023-02-28T07:12:06;0.73;;;0.73;;
15982;SDS011;14442;50.196;8.096;2023-02-28T07:14:32;1.93;;;0.90;;
15982;SDS011;14442;50.196;8.096;2023-02-28T07:17:00;1.80;;;1.10;;
15982;SDS011;14442;50.196;8.096;2023-02-28T07:19:27;1.27;;;0.73;;
15982;SDS011;14442;50.196;8.096;2023-02-28T07:21:54;1.30;;;0.60;;
15982;SDS011;14442;50.196;8.096;2023-02-28T07:24:20;0.67;;;0.67;;
15982;SDS011;14442;50.196;8.096;2023-02-28T07:26:50;0.57;;;0.57;;
15982;SDS011;14442;50.196;8.096;2023-02-28T07:29:17;1.30;;;0.90;;
15982;SDS011;14442;50.196;8.096;2023-02-28T07:31:44;0.80;;;0.80;;
15982;SDS011;14442;50.196;8.096;2023-02-28T07:34:12;0.80;;;0.80;;
15982;SDS011;14442;50.196;8.096;2023-02-28T07:36:39;0.57;;;0.50;;
15982;SDS011;14442;50.196;8.096;2023-02-28T07:39:06;0.80;;;0.80;;
15982;SDS011;14442;50.196;8.096;2023-02-28T07:41:34;0.60;;;0.60;;
15982;SDS011;14442;50.196;8.096;2023-02-28T07:44:04;0.60;;;0.60;;
15982;SDS011;14442;50.196;8.096;2023-02-28T07:46:31;0.93;;;0.67;;
15982;SDS011;14442;50.196;8.096;2023-02-28T07:49:00;0.97;;;0.70;;
15982;SDS011;14442;50.196;8.096;2023-02-28T07:51:29;0.50;;;0.50;;
15982;SDS011;14442;50.196;8.096;2023-02-28T07:53:56;0.80;;;0.50;;
15982;SDS011;14442;50.196;8.096;2023-02-28T07:56:23;0.73;;;0.40;;
15982;SDS011;14442;50.196;8.096;2023-02-28T07:58:49;1.13;;;0.60;;
15982;SDS011;14442;50.196;8.096;2023-02-28T08:01:16;0.77;;;0.50;;
15982;SDS011;14442;50.196;8.096;2023-02-28T08:03:44;1.30;;;0.53;;
15982;SDS011;14442;50.196;8.096;2023-02-28T08:06:15;0.87;;;0.40;;
15982;SDS011;14442;50.196;8.096;2023-02-28T08:08:46;0.50;;;0.50;;
15982;SDS011;14442;50.196;8.096;2023-02-28T08:11:13;0.70;;;0.50;;
15982;SDS011;14442;50.196;8.096;2023-02-28T08:13:41;0.70;;;0.70;;
15982;SDS011;14442;50.196;8.096;2023-02-28T08:16:09;0.97;;;0.70;;
15982;SDS011;14442;50.196;8.096;2023-02-28T08:18:36;1.13;;;0.67;;
15982;SDS011;14442;50.196;8.096;2023-02-28T08:21:05;1.53;;;0.50;;
15982;SDS011;14442;50.196;8.096;2023-02-28T08:23:32;3.80;;;1.13;;
15982;SDS011;14442;50.196;8.096;2023-02-28T08:26:01;1.87;;;1.10;;
15982;SDS011;14442;50.196;8.096;2023-02-28T08:28:28;3.60;;;1.10;;
15982;SDS011;14442;50.196;8.096;2023-02-28T08:30:55;1.50;;;1.37;;
15982;SDS011;14442;50.196;8.096;2023-02-28T08:33:22;2.10;;;0.87;;
15982;SDS011;14442;50.196;8.096;2023-02-28T08:35:51;1.00;;;0.70;;
15982;SDS011;14442;50.196;8.096;2023-02-28T08:38:19;1.23;;;0.70;;
15982;SDS011;14442;50.196;8.096;2023-02-28T08:40:45;3.40;;;0.73;;
15982;SDS011;14442;50.196;8.096;2023-02-28T08:43:13;2.23;;;0.77;;
15982;SDS011;14442;50.196;8.096;2023-02-28T08:45:40;0.70;;;0.60;;
15982;SDS011;14442;50.196;8.096;2023-02-28T08:48:07;2.37;;;0.70;;
15982;SDS011;14442;50.196;8.096;2023-02-28T08:50:33;3.87;;;0.80;;
15982;SDS011;14442;50.196;8.096;2023-02-28T08:53:00;4.20;;;0.90;;
15982;SDS011;14442;50.196;8.096;2023-02-28T08:55:27;2.70;;;0.70;;
15982;SDS011;14442;50.196;8.096;2023-02-28T08:57:53;0.70;;;0.60;;
15982;SDS011;14442;50.196;8.096;2023-02-28T09:00:22;2.90;;;0.50;;
15982;SDS011;14442;50.196;8.096;2023-02-28T09:02:49;2.43;;;0.40;;
15982;SDS011;14442;50.196;8.096;2023-02-28T09:05:15;0.70;;;0.40;;
15982;SDS011;14442;50.196;8.096;2023-02-28T09:07:42;2.17;;;0.83;;
15982;SDS011;14442;50.196;8.096;2023-02-28T09:10:09;0.90;;;0.40;;
15982;SDS011;14442;50.196;8.096;2023-02-28T09:12:36;0.50;;;0.40;;
15982;SDS011;14442;50.196;8.096;2023-02-28T09:15:03;0.73;;;0.40;;
15982;SDS011;14442;50.196;8.096;2023-02-28T09:17:32;0.70;;;0.50;;
15982;SDS011;14442;50.196;8.096;2023-02-28T09:19:59;1.90;;;0.43;;
15982;SDS011;14442;50.196;8.096;2023-02-28T09:22:27;1.07;;;0.40;;
15982;SDS011;14442;50.196;8.096;2023-02-28T09:24:53;0.30;;;0.30;;
15982;SDS011;14442;50.196;8.096;2023-02-28T09:27:20;2.40;;;0.40;;
15982;SDS011;14442;50.196;8.096;2023-02-28T09:29:46;1.40;;;0.30;;
15982;SDS011;14442;50.196;8.096;2023-02-28T09:32:13;0.83;;;0.37;;
15982;SDS011;14442;50.196;8.096;2023-02-28T09:34:41;0.53;;;0.37;;
15982;SDS011;14442;50.196;8.096;2023-02-28T09:37:08;0.43;;;0.20;;
15982;SDS011;14442;50.196;8.096;2023-02-28T09:39:35;1.63;;;0.40;;
15982;SDS011;14442;50.196;8.096;2023-02-28T09:42:02;0.60;;;0.60;;
15982;SDS011;14442;50.196;8.096;2023-02-28T09:44:30;0.63;;;0.40;;
15982;SDS011;14442;50.196;8.096;2023-02-28T09:47:01;0.50;;;0.33;;
15982;SDS011;14442;50.196;8.096;2023-02-28T09:49:37;0.87;;;0.30;;
15982;SDS011;14442;50.196;8.096;2023-02-28T09:52:09;1.07;;;0.30;;
15982;SDS011;14442;50.196;8.096;2023-02-28T09:54:39;0.30;;;0.30;;
15982;SDS011;14442;50.196;8.096;2023-02-28T09:57:07;0.70;;;0.30;;
15982;SDS011;14442;50.196;8.096;2023-02-28T09:59:40;0.60;;;0.40;;
15982;SDS011;14442;50.196;8.096;2023-02-28T10:02:33;0.30;;;0.30;;
15982;SDS011;14442;50.196;8.096;2023-02-28T10:05:16;0.63;;;0.30;;
15982;SDS011;14442;50.196;8.096;2023-02-28T10:07:55;0.63;;;0.30;;
15982;SDS011;14442;50.196;8.096;2023-02-28T10:10:33;0.20;;;0.20;;
15982;SDS011;14442;50.196;8.096;2023-02-28T10:13:04;0.30;;;0.30;;
15982;SDS011;14442;50.196;8.096;2023-02-28T10:15:38;0.87;;;0.23;;
15982;SDS011;14442;50.196;8.096;2023-02-28T10:18:05;1.07;;;0.30;;
15982;SDS011;14442;50.196;8.096;2023-02-28T10:20:37;0.60;;;0.40;;
15982;SDS011;14442;50.196;8.096;2023-02-28T10:23:09;0.80;;;0.47;;
15982;SDS011;14442;50.196;8.096;2023-02-28T10:25:42;1.70;;;0.30;;
15982;SDS011;14442;50.196;8.096;2023-02-28T10:28:14;0.77;;;0.30;;
15982;SDS011;14442;50.196;8.096;2023-02-28T10:30:43;0.30;;;0.20;;
15982;SDS011;14442;50.196;8.096;2023-02-28T10:33:15;0.60;;;0.40;;
15982;SDS011;14442;50.196;8.096;2023-02-28T10:35:45;1.00;;;0.63;;
15982;SDS011;14442;50.196;8.096;2023-02-28T10:38:16;3.27;;;0.37;;
15982;SDS011;14442;50.196;8.096;2023-02-28T10:40:44;0.93;;;0.27;;
15982;SDS011;14442;50.196;8.096;2023-02-28T10:43:18;1.93;;;0.50;;
15982;SDS011;14442;50.196;8.096;2023-02-28T10:45:52;1.50;;;0.67;;
15982;SDS011;14442;50.196;8.096;2023-02-28T10:48:27;5.50;;;0.47;;
15982;SDS011;14442;50.196;8.096;2023-02-28T10:50:58;2.10;;;0.60;;
15982;SDS011;14442;50.196;8.096;2023-02-28T10:53:30;2.40;;;0.70;;
15982;SDS011;14442;50.196;8.096;2023-02-28T10:56:00;4.57;;;0.60;;
15982;SDS011;14442;50.196;8.096;2023-02-28T10:58:30;5.70;;;1.30;;
15982;SDS011;14442;50.196;8.096;2023-02-28T11:00:58;4.53;;;0.40;;
15982;SDS011;14442;50.196;8.096;2023-02-28T11:03:29;7.03;;;0.80;;
15982;SDS011;14442;50.196;8.096;2023-02-28T11:05:58;2.47;;;0.50;;
15982;SDS011;14442;50.196;8.096;2023-02-28T11:08:31;5.83;;;1.00;;
15982;SDS011;14442;50.196;8.096;2023-02-28T11:11:00;10.00;;;1.17;;
15982;SDS011;14442;50.196;8.096;2023-02-28T11:13:32;3.87;;;1.13;;
15982;SDS011;14442;50.196;8.096;2023-02-28T11:16:00;1.43;;;0.60;;
15982;SDS011;14442;50.196;8.096;2023-02-28T11:18:32;2.10;;;0.50;;
15982;SDS011;14442;50.196;8.096;2023-02-28T11:21:03;2.53;;;0.70;;
15982;SDS011;14442;50.196;8.096;2023-02-28T11:23:32;1.83;;;0.40;;
15982;SDS011;14442;50.196;8.096;2023-02-28T11:26:03;4.37;;;0.70;;
15982;SDS011;14442;50.196;8.096;2023-02-28T11:28:35;3.40;;;0.70;;
15982;SDS011;14442;50.196;8.096;2023-02-28T11:31:05;4.30;;;0.60;;
15982;SDS011;14442;50.196;8.096;2023-02-28T11:33:42;3.70;;;0.60;;
15982;SDS011;14442;50.196;8.096;2023-02-28T11:36:11;3.47;;;0.70;;
15982;SDS011;14442;50.196;8.096;2023-02-28T11:38:41;3.53;;;0.60;;
15982;SDS011;14442;50.196;8.096;2023-02-28T11:41:14;2.73;;;0.80;;
15982;SDS011;14442;50.196;8.096;2023-02-28T11:44:11;2.13;;;0.63;;
15982;SDS011;14442;50.196;8.096;2023-02-28T11:46:54;1.70;;;0.40;;
15982;SDS011;14442;50.196;8.096;2023-02-28T11:49:29;4.00;;;0.70;;
15982;SDS011;14442;50.196;8.096;2023-02-28T11:52:01;4.70;;;0.47;;
15982;SDS011;14442;50.196;8.096;2023-02-28T11:54:39;1.13;;;0.53;;
15982;SDS011;14442;50.196;8.096;2023-02-28T11:57:22;3.47;;;0.80;;
15982;SDS011;14442;50.196;8.096;2023-02-28T11:59:59;1.27;;;0.50;;
15982;SDS011;14442;50.196;8.096;2023-02-28T12:02:33;5.57;;;0.67;;
15982;SDS011;14442;50.196;8.096;2023-02-28T12:05:10;3.33;;;0.50;;
15982;SDS011;14442;50.196;8.096;2023-02-28T12:07:51;0.73;;;0.60;;
15982;SDS011;14442;50.196;8.096;2023-02-28T12:10:27;3.50;;;0.60;;
15982;SDS011;14442;50.196;8.096;2023-02-28T12:13:00;2.27;;;0.50;;
15982;SDS011;14442;50.196;8.096;2023-02-28T12:15:50;0.40;;;0.40;;
15982;SDS011;14442;50.196;8.096;2023-02-28T12:18:42;0.50;;;0.50;;
15982;SDS011;14442;50.196;8.096;2023-02-28T12:21:30;0.50;;;0.50;;
15982;SDS011;14442;50.196;8.096;2023-02-28T12:24:07;2.33;;;0.50;;
15982;SDS011;14442;50.196;8.096;2023-02-28T12:26:51;0.80;;;0.40;;
15982;SDS011;14442;50.196;8.096;2023-02-28T12:29:22;0.53;;;0.33;;
15982;SDS011;14442;50.196;8.096;2023-02-28T12:31:53;1.47;;;0.40;;
15982;SDS011;14442;50.196;8.096;2023-02-28T12:34:25;0.57;;;0.37;;
15982;SDS011;14442;50.196;8.096;2023-02-28T12:36:57;4.60;;;0.60;;
15982;SDS011;14442;50.196;8.096;2023-02-28T12:39:28;2.93;;;0.40;;
15982;SDS011;14442;50.196;8.096;2023-02-28T12:41:59;2.83;;;0.50;;
15982;SDS011;14442;50.196;8.096;2023-02-28T12:44:33;2.73;;;0.70;;
15982;SDS011;14442;50.196;8.096;2023-02-28T12:47:04;0.60;;;0.50;;
15982;SDS011;14442;50.196;8.096;2023-02-28T12:49:37;1.10;;;0.40;;
15982;SDS011;14442;50.196;8.096;2023-02-28T12:52:08;0.87;;;0.30;;
15982;SDS011;14442;50.196;8.096;2023-02-28T12:54:40;0.67;;;0.43;;
15982;SDS011;14442;50.196;8.096;2023-02-28T12:57:17;1.67;;;0.50;;
15982;SDS011;14442;50.196;8.096;2023-02-28T12:59:52;0.80;;;0.47;;
15982;SDS011;14442;50.196;8.096;2023-02-28T13:05:26;0.50;;;0.50;;
15982;SDS011;14442;50.196;8.096;2023-02-28T13:08:15;0.50;;;0.30;;
15982;SDS011;14442;50.196;8.096;2023-02-28T13:11:03;0.93;;;0.67;;
15982;SDS011;14442;50.196;8.096;2023-02-28T13:13:31;0.80;;;0.47;;
15982;SDS011;14442;50.196;8.096;2023-02-28T13:16:03;9.20;;;0.63;;
15982;SDS011;14442;50.196;8.096;2023-02-28T13:18:35;0.70;;;0.60;;
15982;SDS011;14442;50.196;8.096;2023-02-28T13:21:04;2.00;;;0.50;;
15982;SDS011;14442;50.196;8.096;2023-02-28T13:29:34;2.63;;;0.60;;
15982;SDS011;14442;50.196;8.096;2023-02-28T13:38:21;3.80;;;0.93;;
15982;SDS011;14442;50.196;8.096;2023-02-28T13:44:05;11.10;;;4.67;;
15982;SDS011;14442;50.196;8.096;2023-02-28T13:46:35;15.70;;;6.80;;
15982;SDS011;14442;50.196;8.096;2023-02-28T13:49:24;24.20;;;9.83;;
15982;SDS011;14442;50.196;8.096;2023-02-28T13:51:53;25.43;;;9.37;;
15982;SDS011;14442;50.196;8.096;2023-02-28T13:54:31;23.83;;;11.47;;
15982;SDS011;14442;50.196;8.096;2023-02-28T13:57:12;33.00;;;15.60;;
15982;SDS011;14442;50.196;8.096;2023-02-28T13:59:50;53.00;;;23.17;;
15982;SDS011;14442;50.196;8.096;2023-02-28T14:02:34;88.67;;;47.67;;
15982;SDS011;14442;50.196;8.096;2023-02-28T14:05:15;250.83;;;138.67;;
15982;SDS011;14442;50.196;8.096;2023-02-28T14:07:44;375.70;;;224.90;;
15982;SDS011;14442;50.196;8.096;2023-02-28T14:10:20;371.27;;;215.03;;
15982;SDS011;14442;50.196;8.096;2023-02-28T14:12:52;328.53;;;189.83;;
15982;SDS011;14442;50.196;8.096;2023-02-28T14:15:28;293.53;;;168.10;;
15982;SDS011;14442;50.196;8.096;2023-02-28T14:18:11;261.70;;;149.70;;
15982;SDS011;14442;50.196;8.096;2023-02-28T14:20:43;237.23;;;144.23;;
15982;SDS011;14442;50.196;8.096;2023-02-28T14:23:14;224.97;;;131.33;;
15982;SDS011;14442;50.196;8.096;2023-02-28T14:25:47;223.30;;;128.90;;
15982;SDS011;14442;50.196;8.096;2023-02-28T14:28:28;206.30;;;119.53;;
15982;SDS011;14442;50.196;8.096;2023-02-28T14:31:15;199.13;;;118.33;;
15982;SDS011;14442;50.196;8.096;2023-02-28T14:33:57;181.37;;;108.87;;
15982;SDS011;14442;50.196;8.096;2023-02-28T14:36:31;180.10;;;105.27;;
15982;SDS011;14442;50.196;8.096;2023-02-28T14:39:01;162.00;;;98.20;;
15982;SDS011;14442;50.196;8.096;2023-02-28T14:41:32;157.90;;;95.70;;
15982;SDS011;14442;50.196;8.096;2023-02-28T14:44:02;141.77;;;83.77;;
15982;SDS011;14442;50.196;8.096;2023-02-28T14:46:39;120.23;;;73.57;;
15982;SDS011;14442;50.196;8.096;2023-02-28T14:49:12;107.90;;;65.77;;
15982;SDS011;14442;50.196;8.096;2023-02-28T14:51:42;95.13;;;56.53;;
15982;SDS011;14442;50.196;8.096;2023-02-28T14:54:12;84.10;;;53.07;;
15982;SDS011;14442;50.196;8.096;2023-02-28T14:56:41;84.40;;;50.13;;
15982;SDS011;14442;50.196;8.096;2023-02-28T14:59:22;77.07;;;46.23;;
15982;SDS011;14442;50.196;8.096;2023-02-28T15:01:51;68.47;;;44.63;;
15982;SDS011;14442;50.196;8.096;2023-02-28T15:04:21;74.10;;;41.80;;
15982;SDS011;14442;50.196;8.096;2023-02-28T15:07:06;68.37;;;40.73;;
15982;SDS011;14442;50.196;8.096;2023-02-28T15:09:33;65.40;;;39.63;;
15982;SDS011;14442;50.196;8.096;2023-02-28T15:12:00;63.33;;;38.53;;
15982;SDS011;14442;50.196;8.096;2023-02-28T15:14:27;59.40;;;35.67;;
15982;SDS011;14442;50.196;8.096;2023-02-28T15:16:56;56.40;;;37.30;;
15982;SDS011;14442;50.196;8.096;2023-02-28T15:19:28;53.10;;;35.63;;
15982;SDS011;14442;50.196;8.096;2023-02-28T15:21:57;53.23;;;33.47;;
15982;SDS011;14442;50.196;8.096;2023-02-28T15:24:30;53.17;;;32.90;;
15982;SDS011;14442;50.196;8.096;2023-02-28T15:27:03;48.17;;;32.17;;